Bornholm — C4KF2 — position and weather

sailwx.info

Track history (hours):
 
Tides and Currents Weather Stations Pressure Air Temp Water Temp Dewpoint Dewpoint Depression Visibility Wind Speed Wind Dir Waves Ship Positions

Bornholm

Last reported at 2014-Nov-01 04:32 UTC. Time now 2014-Nov-01 04:51 UTC.
Position N 55°36' E 012°29'.

Length 118 m; draft 6.5 m.

Type: Cargo ship. MMSI: 212521000.

Date/timePositionNaut miles runAvg speedWind from/ knotsBaromVisibWave heightAir tempDewpointWater temp
2014-Nov-01 04:32N 55°36' E 012°29'0 0.0
2014-Nov-01 03:32N 55°36' E 012°29'0 0.0
2014-Nov-01 02:32N 55°36' E 012°29'0 0.0
2014-Nov-01 01:32N 55°36' E 012°29'0 0.0
2014-Nov-01 00:32N 55°36' E 012°29'0 0.0
2014-Oct-31 23:32N 55°36' E 012°29'0 0.0
2014-Oct-31 22:32N 55°36' E 012°29'0 0.0
2014-Oct-31 21:32N 55°36' E 012°29'0 0.0
2014-Oct-31 20:32N 55°36' E 012°29'0 0.0
2014-Oct-31 19:32N 55°36' E 012°29'0 0.0
2014-Oct-31 18:32N 55°36' E 012°29'0 0.0
2014-Oct-31 17:32N 55°36' E 012°29'0 0.0
2014-Oct-31 16:32N 55°36' E 012°29'0 0.0
2014-Oct-31 15:32N 55°36' E 012°29'0 0.0
2014-Oct-31 14:32N 55°36' E 012°29'0 0.0
2014-Oct-31 13:32N 55°36' E 012°29'0 0.0
2014-Oct-31 12:32N 55°36' E 012°29'0 0.4
2014-Oct-31 11:33N 55°36' E 012°29'8 7.8
2014-Oct-31 10:33N 55°31' E 012°39'1111.3
2014-Oct-31 09:33N 55°19' E 012°42'1312.5
2014-Oct-31 08:33N 55°15' E 013°03'1613.1
2014-Oct-31 07:19N 55°14' E 013°32'1113.0
2014-Oct-31 06:28N 55°14' E 013°51'1212.6
2014-Oct-31 05:29N 55°14' E 014°12'1111.9
2014-Oct-31 04:33N 55°21' E 014°27'1312.4
2014-Oct-31 03:33N 55°29' E 014°44'1312.6
2014-Oct-31 02:31N 55°36' E 015°03'117121.1
2014-Oct-31 01:33N 57°03' E 017°23'3 2.7
2014-Oct-31 00:29N 57°06' E 017°25'3 3.0
2014-Oct-30 23:30N 57°03' E 017°23'7175.4
2014-Oct-30 22:33N 56°01' E 016°20'7370.6
2014-Oct-30 21:31N 57°05' E 017°24'2 1.9
2014-Oct-30 20:25N 57°03' E 017°23'0 0.5
2014-Oct-30 19:33N 57°04' E 017°23'10 9.5
2014-Oct-30 18:33N 57°13' E 017°30'1010.2
2014-Oct-30 17:33N 57°22' E 017°37'1918.7
2014-Oct-30 16:34N 57°05' E 017°24'2121.1
2014-Oct-30 15:33N 57°24' E 017°39'4 3.5
2014-Oct-30 14:33N 57°28' E 017°41'  
Track history (hours):
 
Tides and Currents Weather Stations Pressure Air Temp Water Temp Dewpoint Dewpoint Depression Visibility Wind Speed Wind Dir Waves Ship Positions

Bornholm

Last reported at 2014-Nov-01 04:32 UTC. Time now 2014-Nov-01 04:51 UTC.
Position N 55°36' E 012°29'.

Length 118 m; draft 6.5 m.

Type: Cargo ship. MMSI: 212521000.

Date/timePositionNaut miles runAvg speedWind from/ knotsBaromVisibWave heightAir tempDewpointWater temp
2014-Nov-01 04:32N 55°36' E 012°29'0 0.0
2014-Nov-01 03:32N 55°36' E 012°29'0 0.0
2014-Nov-01 02:32N 55°36' E 012°29'0 0.0
2014-Nov-01 01:32N 55°36' E 012°29'0 0.0
2014-Nov-01 00:32N 55°36' E 012°29'0 0.0
2014-Oct-31 23:32N 55°36' E 012°29'0 0.0
2014-Oct-31 22:32N 55°36' E 012°29'0 0.0
2014-Oct-31 21:32N 55°36' E 012°29'0 0.0
2014-Oct-31 20:32N 55°36' E 012°29'0 0.0
2014-Oct-31 19:32N 55°36' E 012°29'0 0.0
2014-Oct-31 18:32N 55°36' E 012°29'0 0.0
2014-Oct-31 17:32N 55°36' E 012°29'0 0.0
2014-Oct-31 16:32N 55°36' E 012°29'0 0.0
2014-Oct-31 15:32N 55°36' E 012°29'0 0.0
2014-Oct-31 14:32N 55°36' E 012°29'0 0.0
2014-Oct-31 13:32N 55°36' E 012°29'0 0.0
2014-Oct-31 12:32N 55°36' E 012°29'0 0.4
2014-Oct-31 11:33N 55°36' E 012°29'8 7.8
2014-Oct-31 10:33N 55°31' E 012°39'1111.3
2014-Oct-31 09:33N 55°19' E 012°42'1312.5
2014-Oct-31 08:33N 55°15' E 013°03'1613.1
2014-Oct-31 07:19N 55°14' E 013°32'1113.0
2014-Oct-31 06:28N 55°14' E 013°51'1212.6
2014-Oct-31 05:29N 55°14' E 014°12'1111.9
2014-Oct-31 04:33N 55°21' E 014°27'1312.4
2014-Oct-31 03:33N 55°29' E 014°44'1312.6
2014-Oct-31 02:31N 55°36' E 015°03'117121.1
2014-Oct-31 01:33N 57°03' E 017°23'3 2.7
2014-Oct-31 00:29N 57°06' E 017°25'3 3.0
2014-Oct-30 23:30N 57°03' E 017°23'7175.4
2014-Oct-30 22:33N 56°01' E 016°20'7370.6
2014-Oct-30 21:31N 57°05' E 017°24'2 1.9
2014-Oct-30 20:25N 57°03' E 017°23'0 0.5
2014-Oct-30 19:33N 57°04' E 017°23'10 9.5
2014-Oct-30 18:33N 57°13' E 017°30'1010.2
2014-Oct-30 17:33N 57°22' E 017°37'1918.7
2014-Oct-30 16:34N 57°05' E 017°24'2121.1
2014-Oct-30 15:33N 57°24' E 017°39'4 3.5
2014-Oct-30 14:33N 57°28' E 017°41'  

Dump ship's entire track history